sensor_id;sensor_type;location;lat;lon;timestamp;temperature;humidity
3172;DHT22;1597;51.572;6.992;2023-07-31T00:01:51;17.10;99.90
3172;DHT22;1597;51.572;6.992;2023-07-31T00:04:16;17.10;99.90
3172;DHT22;1597;51.572;6.992;2023-07-31T00:06:42;17.10;99.90
3172;DHT22;1597;51.572;6.992;2023-07-31T00:09:08;17.20;99.90
3172;DHT22;1597;51.572;6.992;2023-07-31T00:11:34;17.20;99.90
3172;DHT22;1597;51.572;6.992;2023-07-31T00:14:00;17.10;99.90
3172;DHT22;1597;51.572;6.992;2023-07-31T00:16:25;17.10;99.90
3172;DHT22;1597;51.572;6.992;2023-07-31T00:18:51;17.00;99.90
3172;DHT22;1597;51.572;6.992;2023-07-31T00:21:17;17.00;99.90
3172;DHT22;1597;51.572;6.992;2023-07-31T00:23:43;16.90;99.90
3172;DHT22;1597;51.572;6.992;2023-07-31T00:26:09;16.90;99.90
3172;DHT22;1597;51.572;6.992;2023-07-31T00:28:34;16.80;99.90
3172;DHT22;1597;51.572;6.992;2023-07-31T00:31:00;16.80;99.90
3172;DHT22;1597;51.572;6.992;2023-07-31T00:33:27;16.80;99.90
3172;DHT22;1597;51.572;6.992;2023-07-31T00:35:53;16.80;99.90
3172;DHT22;1597;51.572;6.992;2023-07-31T00:38:19;16.80;99.90
3172;DHT22;1597;51.572;6.992;2023-07-31T00:40:44;16.80;99.90
3172;DHT22;1597;51.572;6.992;2023-07-31T00:43:10;16.70;99.90
3172;DHT22;1597;51.572;6.992;2023-07-31T00:45:36;16.70;99.90
3172;DHT22;1597;51.572;6.992;2023-07-31T00:48:02;16.70;99.90
3172;DHT22;1597;51.572;6.992;2023-07-31T00:50:28;16.70;99.90
3172;DHT22;1597;51.572;6.992;2023-07-31T00:52:54;16.70;99.90
3172;DHT22;1597;51.572;6.992;2023-07-31T00:55:20;16.70;99.90
3172;DHT22;1597;51.572;6.992;2023-07-31T00:57:48;16.80;99.90
3172;DHT22;1597;51.572;6.992;2023-07-31T01:00:15;16.60;99.90
3172;DHT22;1597;51.572;6.992;2023-07-31T01:02:41;16.70;99.90
3172;DHT22;1597;51.572;6.992;2023-07-31T01:05:07;16.80;99.90
3172;DHT22;1597;51.572;6.992;2023-07-31T01:10:25;16.80;99.90
3172;DHT22;1597;51.572;6.992;2023-07-31T01:12:54;16.80;99.90
3172;DHT22;1597;51.572;6.992;2023-07-31T01:15:25;16.80;99.90
3172;DHT22;1597;51.572;6.992;2023-07-31T01:17:50;16.70;99.90
3172;DHT22;1597;51.572;6.992;2023-07-31T01:20:27;16.70;99.90
3172;DHT22;1597;51.572;6.992;2023-07-31T01:23:26;16.80;99.90
3172;DHT22;1597;51.572;6.992;2023-07-31T01:37:34;16.80;99.90
3172;DHT22;1597;51.572;6.992;2023-07-31T01:40:03;16.80;99.90
3172;DHT22;1597;51.572;6.992;2023-07-31T01:42:31;16.80;99.90
3172;DHT22;1597;51.572;6.992;2023-07-31T01:44:57;16.80;99.90
3172;DHT22;1597;51.572;6.992;2023-07-31T01:47:22;16.80;99.90
3172;DHT22;1597;51.572;6.992;2023-07-31T01:49:51;16.80;99.90
3172;DHT22;1597;51.572;6.992;2023-07-31T01:52:16;16.80;99.90
3172;DHT22;1597;51.572;6.992;2023-07-31T01:54:42;16.80;99.90
3172;DHT22;1597;51.572;6.992;2023-07-31T01:57:08;16.80;99.90
3172;DHT22;1597;51.572;6.992;2023-07-31T01:59:34;16.70;99.90
3172;DHT22;1597;51.572;6.992;2023-07-31T02:02:00;16.80;99.90
3172;DHT22;1597;51.572;6.992;2023-07-31T02:04:26;16.70;99.90
3172;DHT22;1597;51.572;6.992;2023-07-31T02:06:52;16.80;99.90
3172;DHT22;1597;51.572;6.992;2023-07-31T02:09:19;16.80;99.90
3172;DHT22;1597;51.572;6.992;2023-07-31T02:11:44;16.80;99.90
3172;DHT22;1597;51.572;6.992;2023-07-31T02:14:10;16.70;99.90
3172;DHT22;1597;51.572;6.992;2023-07-31T02:16:36;16.70;99.90
3172;DHT22;1597;51.572;6.992;2023-07-31T02:19:02;16.70;99.90
3172;DHT22;1597;51.572;6.992;2023-07-31T02:21:27;16.70;99.90
3172;DHT22;1597;51.572;6.992;2023-07-31T02:23:53;16.70;99.90
3172;DHT22;1597;51.572;6.992;2023-07-31T02:26:19;16.70;99.90
3172;DHT22;1597;51.572;6.992;2023-07-31T02:28:45;16.70;99.90
3172;DHT22;1597;51.572;6.992;2023-07-31T02:31:11;16.70;99.90
3172;DHT22;1597;51.572;6.992;2023-07-31T02:33:36;16.70;99.90
3172;DHT22;1597;51.572;6.992;2023-07-31T02:36:02;16.80;99.90
3172;DHT22;1597;51.572;6.992;2023-07-31T02:38:28;16.80;99.90
3172;DHT22;1597;51.572;6.992;2023-07-31T02:40:54;16.80;99.90
3172;DHT22;1597;51.572;6.992;2023-07-31T02:43:20;16.80;99.90
3172;DHT22;1597;51.572;6.992;2023-07-31T02:45:45;16.70;99.90
3172;DHT22;1597;51.572;6.992;2023-07-31T02:48:11;16.70;99.90
3172;DHT22;1597;51.572;6.992;2023-07-31T02:50:37;16.70;99.90
3172;DHT22;1597;51.572;6.992;2023-07-31T02:53:03;16.80;99.90
3172;DHT22;1597;51.572;6.992;2023-07-31T02:55:29;16.80;99.90
3172;DHT22;1597;51.572;6.992;2023-07-31T02:57:54;16.70;99.90
3172;DHT22;1597;51.572;6.992;2023-07-31T03:00:20;16.70;99.90
3172;DHT22;1597;51.572;6.992;2023-07-31T03:02:46;16.70;99.90
3172;DHT22;1597;51.572;6.992;2023-07-31T03:05:12;16.70;99.90
3172;DHT22;1597;51.572;6.992;2023-07-31T03:07:37;16.70;99.90
3172;DHT22;1597;51.572;6.992;2023-07-31T03:10:05;16.70;99.90
3172;DHT22;1597;51.572;6.992;2023-07-31T03:12:31;16.70;99.90
3172;DHT22;1597;51.572;6.992;2023-07-31T03:14:57;16.70;99.90
3172;DHT22;1597;51.572;6.992;2023-07-31T03:17:23;16.70;99.90
3172;DHT22;1597;51.572;6.992;2023-07-31T03:19:49;16.70;99.90
3172;DHT22;1597;51.572;6.992;2023-07-31T03:22:15;16.70;99.90
3172;DHT22;1597;51.572;6.992;2023-07-31T03:24:41;16.80;99.90
3172;DHT22;1597;51.572;6.992;2023-07-31T03:27:06;16.80;99.90
3172;DHT22;1597;51.572;6.992;2023-07-31T03:29:32;16.80;99.90
3172;DHT22;1597;51.572;6.992;2023-07-31T03:31:58;16.80;99.90
3172;DHT22;1597;51.572;6.992;2023-07-31T03:34:24;16.80;99.90
3172;DHT22;1597;51.572;6.992;2023-07-31T03:36:50;16.80;99.90
3172;DHT22;1597;51.572;6.992;2023-07-31T03:39:16;16.80;99.90
3172;DHT22;1597;51.572;6.992;2023-07-31T03:41:41;16.90;99.90
3172;DHT22;1597;51.572;6.992;2023-07-31T03:44:07;16.90;99.90
3172;DHT22;1597;51.572;6.992;2023-07-31T03:46:34;16.90;99.90
3172;DHT22;1597;51.572;6.992;2023-07-31T03:49:01;16.90;99.90
3172;DHT22;1597;51.572;6.992;2023-07-31T03:51:27;16.80;99.90
3172;DHT22;1597;51.572;6.992;2023-07-31T03:53:53;16.80;99.90
3172;DHT22;1597;51.572;6.992;2023-07-31T03:56:19;16.80;99.90
3172;DHT22;1597;51.572;6.992;2023-07-31T03:58:44;16.80;99.90
3172;DHT22;1597;51.572;6.992;2023-07-31T04:01:10;16.80;99.90
3172;DHT22;1597;51.572;6.992;2023-07-31T04:03:36;16.90;99.90
3172;DHT22;1597;51.572;6.992;2023-07-31T04:06:02;17.00;99.90
3172;DHT22;1597;51.572;6.992;2023-07-31T04:08:28;16.90;99.90
3172;DHT22;1597;51.572;6.992;2023-07-31T04:10:54;16.90;99.90
3172;DHT22;1597;51.572;6.992;2023-07-31T04:13:22;16.90;99.90
3172;DHT22;1597;51.572;6.992;2023-07-31T04:15:51;17.00;99.90
3172;DHT22;1597;51.572;6.992;2023-07-31T04:18:20;16.90;99.90
3172;DHT22;1597;51.572;6.992;2023-07-31T04:20:45;17.00;99.90
3172;DHT22;1597;51.572;6.992;2023-07-31T04:23:11;17.00;99.90
3172;DHT22;1597;51.572;6.992;2023-07-31T04:25:37;17.10;99.90
3172;DHT22;1597;51.572;6.992;2023-07-31T04:28:03;17.00;99.90
3172;DHT22;1597;51.572;6.992;2023-07-31T04:30:29;17.00;99.90
3172;DHT22;1597;51.572;6.992;2023-07-31T04:32:55;17.10;99.90
3172;DHT22;1597;51.572;6.992;2023-07-31T04:35:21;17.10;99.90
3172;DHT22;1597;51.572;6.992;2023-07-31T04:37:47;17.10;99.90
3172;DHT22;1597;51.572;6.992;2023-07-31T04:40:15;17.10;99.90
3172;DHT22;1597;51.572;6.992;2023-07-31T04:42:41;17.10;99.90
3172;DHT22;1597;51.572;6.992;2023-07-31T04:45:08;17.20;99.90
3172;DHT22;1597;51.572;6.992;2023-07-31T04:47:35;17.20;99.90
3172;DHT22;1597;51.572;6.992;2023-07-31T04:50:01;17.20;99.90
3172;DHT22;1597;51.572;6.992;2023-07-31T04:52:27;17.20;99.90
3172;DHT22;1597;51.572;6.992;2023-07-31T04:54:54;17.20;99.90
3172;DHT22;1597;51.572;6.992;2023-07-31T04:57:19;17.20;99.90
3172;DHT22;1597;51.572;6.992;2023-07-31T04:59:45;17.20;99.90
3172;DHT22;1597;51.572;6.992;2023-07-31T05:02:12;17.20;99.90
3172;DHT22;1597;51.572;6.992;2023-07-31T05:04:39;17.10;99.90
3172;DHT22;1597;51.572;6.992;2023-07-31T05:07:06;17.20;99.90
3172;DHT22;1597;51.572;6.992;2023-07-31T05:09:32;17.20;99.90
3172;DHT22;1597;51.572;6.992;2023-07-31T05:11:57;17.20;99.90
3172;DHT22;1597;51.572;6.992;2023-07-31T05:14:26;17.20;99.90
3172;DHT22;1597;51.572;6.992;2023-07-31T05:16:52;17.20;99.90
3172;DHT22;1597;51.572;6.992;2023-07-31T05:19:18;17.20;99.90
3172;DHT22;1597;51.572;6.992;2023-07-31T05:21:44;17.30;99.90
3172;DHT22;1597;51.572;6.992;2023-07-31T05:24:10;17.30;99.90
3172;DHT22;1597;51.572;6.992;2023-07-31T05:26:36;17.30;99.90
3172;DHT22;1597;51.572;6.992;2023-07-31T05:29:03;17.30;99.90
3172;DHT22;1597;51.572;6.992;2023-07-31T05:31:29;17.30;99.90
3172;DHT22;1597;51.572;6.992;2023-07-31T05:33:55;17.30;99.90
3172;DHT22;1597;51.572;6.992;2023-07-31T05:36:21;17.40;99.90
3172;DHT22;1597;51.572;6.992;2023-07-31T05:38:47;17.40;99.90
3172;DHT22;1597;51.572;6.992;2023-07-31T05:41:14;17.40;99.90
3172;DHT22;1597;51.572;6.992;2023-07-31T05:43:40;17.40;99.90
3172;DHT22;1597;51.572;6.992;2023-07-31T05:46:06;17.30;99.90
3172;DHT22;1597;51.572;6.992;2023-07-31T05:48:32;17.30;99.90
3172;DHT22;1597;51.572;6.992;2023-07-31T05:51:01;17.40;99.90
3172;DHT22;1597;51.572;6.992;2023-07-31T05:53:27;17.40;99.90
3172;DHT22;1597;51.572;6.992;2023-07-31T05:55:53;17.30;99.90
3172;DHT22;1597;51.572;6.992;2023-07-31T05:58:19;17.30;99.90
3172;DHT22;1597;51.572;6.992;2023-07-31T06:00:45;17.30;99.90
3172;DHT22;1597;51.572;6.992;2023-07-31T06:03:11;17.30;99.90
3172;DHT22;1597;51.572;6.992;2023-07-31T06:05:37;17.30;99.90
3172;DHT22;1597;51.572;6.992;2023-07-31T06:08:02;17.20;99.90
3172;DHT22;1597;51.572;6.992;2023-07-31T06:10:28;17.20;99.90
3172;DHT22;1597;51.572;6.992;2023-07-31T06:12:54;17.20;99.90
3172;DHT22;1597;51.572;6.992;2023-07-31T06:15:22;17.20;99.90
3172;DHT22;1597;51.572;6.992;2023-07-31T06:17:49;17.20;99.90
3172;DHT22;1597;51.572;6.992;2023-07-31T06:20:15;17.20;99.90
3172;DHT22;1597;51.572;6.992;2023-07-31T06:22:41;17.20;99.90
3172;DHT22;1597;51.572;6.992;2023-07-31T06:25:07;17.20;99.90
3172;DHT22;1597;51.572;6.992;2023-07-31T06:27:34;17.20;99.90
3172;DHT22;1597;51.572;6.992;2023-07-31T06:30:00;17.20;99.90
3172;DHT22;1597;51.572;6.992;2023-07-31T06:32:26;17.20;99.90
3172;DHT22;1597;51.572;6.992;2023-07-31T06:34:52;17.20;99.90
3172;DHT22;1597;51.572;6.992;2023-07-31T06:37:19;17.20;99.90
3172;DHT22;1597;51.572;6.992;2023-07-31T06:39:45;17.20;99.90
3172;DHT22;1597;51.572;6.992;2023-07-31T06:42:11;17.20;99.90
3172;DHT22;1597;51.572;6.992;2023-07-31T06:44:37;17.20;99.90
3172;DHT22;1597;51.572;6.992;2023-07-31T06:47:04;17.20;99.90
3172;DHT22;1597;51.572;6.992;2023-07-31T06:49:30;17.20;99.90
3172;DHT22;1597;51.572;6.992;2023-07-31T06:51:56;17.10;99.90
3172;DHT22;1597;51.572;6.992;2023-07-31T06:54:22;17.20;99.90
3172;DHT22;1597;51.572;6.992;2023-07-31T06:56:48;17.20;99.90
3172;DHT22;1597;51.572;6.992;2023-07-31T06:59:14;17.20;99.90
3172;DHT22;1597;51.572;6.992;2023-07-31T07:01:39;17.20;99.90
3172;DHT22;1597;51.572;6.992;2023-07-31T07:04:05;17.20;99.90
3172;DHT22;1597;51.572;6.992;2023-07-31T07:06:31;17.20;99.90
3172;DHT22;1597;51.572;6.992;2023-07-31T07:08:57;17.20;99.90
3172;DHT22;1597;51.572;6.992;2023-07-31T07:11:23;17.20;99.90
3172;DHT22;1597;51.572;6.992;2023-07-31T07:13:49;17.20;99.90
3172;DHT22;1597;51.572;6.992;2023-07-31T07:16:14;17.20;99.90
3172;DHT22;1597;51.572;6.992;2023-07-31T07:18:40;17.20;99.90
3172;DHT22;1597;51.572;6.992;2023-07-31T07:21:06;17.20;99.90
3172;DHT22;1597;51.572;6.992;2023-07-31T07:23:32;17.20;99.90
3172;DHT22;1597;51.572;6.992;2023-07-31T07:25:58;17.10;99.90
3172;DHT22;1597;51.572;6.992;2023-07-31T07:28:24;17.10;99.90
3172;DHT22;1597;51.572;6.992;2023-07-31T07:30:54;17.10;99.90
3172;DHT22;1597;51.572;6.992;2023-07-31T07:33:21;17.20;99.90
3172;DHT22;1597;51.572;6.992;2023-07-31T07:35:46;17.10;99.90
3172;DHT22;1597;51.572;6.992;2023-07-31T07:38:14;17.10;99.90
3172;DHT22;1597;51.572;6.992;2023-07-31T07:40:41;17.20;99.90
3172;DHT22;1597;51.572;6.992;2023-07-31T07:43:08;17.20;99.90
3172;DHT22;1597;51.572;6.992;2023-07-31T07:45:34;17.20;99.90
3172;DHT22;1597;51.572;6.992;2023-07-31T07:48:01;17.20;99.90
3172;DHT22;1597;51.572;6.992;2023-07-31T07:50:27;17.20;99.90
3172;DHT22;1597;51.572;6.992;2023-07-31T07:52:53;17.10;99.90
3172;DHT22;1597;51.572;6.992;2023-07-31T07:55:19;17.10;99.90
3172;DHT22;1597;51.572;6.992;2023-07-31T07:57:45;17.10;99.90
3172;DHT22;1597;51.572;6.992;2023-07-31T08:00:13;17.10;99.90
3172;DHT22;1597;51.572;6.992;2023-07-31T08:02:40;16.80;99.90
3172;DHT22;1597;51.572;6.992;2023-07-31T08:05:06;17.20;99.90
3172;DHT22;1597;51.572;6.992;2023-07-31T08:07:32;17.10;99.90
3172;DHT22;1597;51.572;6.992;2023-07-31T08:09:58;17.00;99.90
3172;DHT22;1597;51.572;6.992;2023-07-31T08:12:23;17.10;99.90
3172;DHT22;1597;51.572;6.992;2023-07-31T08:14:50;17.10;99.90
3172;DHT22;1597;51.572;6.992;2023-07-31T08:17:16;17.10;99.90
3172;DHT22;1597;51.572;6.992;2023-07-31T08:19:42;17.10;99.90
3172;DHT22;1597;51.572;6.992;2023-07-31T08:22:09;17.10;99.90
3172;DHT22;1597;51.572;6.992;2023-07-31T08:24:35;17.10;99.90
3172;DHT22;1597;51.572;6.992;2023-07-31T08:27:01;16.90;99.90
3172;DHT22;1597;51.572;6.992;2023-07-31T08:29:27;17.00;99.90
3172;DHT22;1597;51.572;6.992;2023-07-31T08:31:55;17.00;99.90
3172;DHT22;1597;51.572;6.992;2023-07-31T08:34:21;17.00;99.90
3172;DHT22;1597;51.572;6.992;2023-07-31T08:36:47;17.00;99.90
3172;DHT22;1597;51.572;6.992;2023-07-31T08:39:14;17.00;99.90
3172;DHT22;1597;51.572;6.992;2023-07-31T08:41:40;17.00;99.90
3172;DHT22;1597;51.572;6.992;2023-07-31T08:44:07;16.90;99.90
3172;DHT22;1597;51.572;6.992;2023-07-31T08:46:34;16.90;99.90
3172;DHT22;1597;51.572;6.992;2023-07-31T08:49:00;16.90;99.90
3172;DHT22;1597;51.572;6.992;2023-07-31T08:51:30;16.90;99.90
3172;DHT22;1597;51.572;6.992;2023-07-31T08:53:56;16.90;99.90
3172;DHT22;1597;51.572;6.992;2023-07-31T08:56:23;16.90;99.90
3172;DHT22;1597;51.572;6.992;2023-07-31T08:58:50;16.90;99.90
3172;DHT22;1597;51.572;6.992;2023-07-31T09:01:17;17.00;99.90
3172;DHT22;1597;51.572;6.992;2023-07-31T09:03:44;16.90;99.90
3172;DHT22;1597;51.572;6.992;2023-07-31T09:06:10;16.90;99.90
3172;DHT22;1597;51.572;6.992;2023-07-31T09:08:41;16.90;99.90
3172;DHT22;1597;51.572;6.992;2023-07-31T09:11:08;16.90;99.90
3172;DHT22;1597;51.572;6.992;2023-07-31T09:13:35;16.90;99.90
3172;DHT22;1597;51.572;6.992;2023-07-31T09:16:02;16.80;99.90
3172;DHT22;1597;51.572;6.992;2023-07-31T09:18:29;16.80;99.90
3172;DHT22;1597;51.572;6.992;2023-07-31T09:21:05;16.80;99.90
3172;DHT22;1597;51.572;6.992;2023-07-31T09:23:44;16.80;99.90
3172;DHT22;1597;51.572;6.992;2023-07-31T09:26:29;16.80;99.90
3172;DHT22;1597;51.572;6.992;2023-07-31T09:28:56;16.90;99.90
3172;DHT22;1597;51.572;6.992;2023-07-31T09:31:52;17.00;99.90
3172;DHT22;1597;51.572;6.992;2023-07-31T09:34:20;17.00;99.90
3172;DHT22;1597;51.572;6.992;2023-07-31T09:36:49;17.00;99.90
3172;DHT22;1597;51.572;6.992;2023-07-31T09:39:17;17.00;99.90
3172;DHT22;1597;51.572;6.992;2023-07-31T09:41:55;17.10;99.90
3172;DHT22;1597;51.572;6.992;2023-07-31T09:44:25;17.10;99.90
3172;DHT22;1597;51.572;6.992;2023-07-31T09:47:03;17.10;99.90
3172;DHT22;1597;51.572;6.992;2023-07-31T09:49:29;17.10;99.90
3172;DHT22;1597;51.572;6.992;2023-07-31T09:51:55;17.00;99.90
3172;DHT22;1597;51.572;6.992;2023-07-31T09:54:21;17.10;99.90
3172;DHT22;1597;51.572;6.992;2023-07-31T09:56:48;17.10;99.90
3172;DHT22;1597;51.572;6.992;2023-07-31T09:59:17;17.10;99.90
3172;DHT22;1597;51.572;6.992;2023-07-31T10:01:45;17.20;99.90
3172;DHT22;1597;51.572;6.992;2023-07-31T10:04:13;17.20;99.90
3172;DHT22;1597;51.572;6.992;2023-07-31T10:06:41;17.20;99.90
3172;DHT22;1597;51.572;6.992;2023-07-31T10:09:11;17.20;99.90
3172;DHT22;1597;51.572;6.992;2023-07-31T10:11:55;17.20;99.90
3172;DHT22;1597;51.572;6.992;2023-07-31T10:14:26;17.20;99.90
3172;DHT22;1597;51.572;6.992;2023-07-31T10:16:54;17.20;99.90
3172;DHT22;1597;51.572;6.992;2023-07-31T10:19:23;17.20;99.90
3172;DHT22;1597;51.572;6.992;2023-07-31T10:21:49;17.20;99.90
3172;DHT22;1597;51.572;6.992;2023-07-31T10:24:17;17.20;99.90
3172;DHT22;1597;51.572;6.992;2023-07-31T10:26:45;17.30;99.90
3172;DHT22;1597;51.572;6.992;2023-07-31T10:29:13;17.30;99.90
3172;DHT22;1597;51.572;6.992;2023-07-31T10:31:42;17.30;99.90
3172;DHT22;1597;51.572;6.992;2023-07-31T10:34:09;17.30;99.90
3172;DHT22;1597;51.572;6.992;2023-07-31T10:36:35;17.30;99.90
3172;DHT22;1597;51.572;6.992;2023-07-31T10:39:04;17.30;99.90
3172;DHT22;1597;51.572;6.992;2023-07-31T10:41:31;17.40;99.90
3172;DHT22;1597;51.572;6.992;2023-07-31T10:44:00;17.40;99.90
3172;DHT22;1597;51.572;6.992;2023-07-31T10:46:28;17.30;99.90
3172;DHT22;1597;51.572;6.992;2023-07-31T10:48:59;17.30;99.90
3172;DHT22;1597;51.572;6.992;2023-07-31T10:51:34;17.40;99.90
3172;DHT22;1597;51.572;6.992;2023-07-31T10:54:15;17.30;99.90
3172;DHT22;1597;51.572;6.992;2023-07-31T10:56:50;17.40;99.90
3172;DHT22;1597;51.572;6.992;2023-07-31T10:59:17;17.40;99.90
3172;DHT22;1597;51.572;6.992;2023-07-31T11:01:53;17.40;99.90
3172;DHT22;1597;51.572;6.992;2023-07-31T11:04:25;17.40;99.90
3172;DHT22;1597;51.572;6.992;2023-07-31T11:06:57;17.50;99.90
3172;DHT22;1597;51.572;6.992;2023-07-31T11:09:29;17.60;99.90
3172;DHT22;1597;51.572;6.992;2023-07-31T11:11:56;17.60;99.90
3172;DHT22;1597;51.572;6.992;2023-07-31T11:14:23;17.60;99.90
3172;DHT22;1597;51.572;6.992;2023-07-31T11:16:52;17.60;99.90
3172;DHT22;1597;51.572;6.992;2023-07-31T11:19:24;17.60;99.90
3172;DHT22;1597;51.572;6.992;2023-07-31T11:21:53;17.60;99.90
3172;DHT22;1597;51.572;6.992;2023-07-31T11:24:20;17.60;99.90
3172;DHT22;1597;51.572;6.992;2023-07-31T11:26:53;17.70;99.90
3172;DHT22;1597;51.572;6.992;2023-07-31T11:29:20;17.70;99.90
3172;DHT22;1597;51.572;6.992;2023-07-31T11:31:47;17.80;99.90
3172;DHT22;1597;51.572;6.992;2023-07-31T11:34:15;17.80;99.90
3172;DHT22;1597;51.572;6.992;2023-07-31T11:36:53;17.80;99.90
3172;DHT22;1597;51.572;6.992;2023-07-31T11:39:20;17.80;99.90
3172;DHT22;1597;51.572;6.992;2023-07-31T11:41:47;17.80;99.90
3172;DHT22;1597;51.572;6.992;2023-07-31T11:44:13;17.80;99.90
3172;DHT22;1597;51.572;6.992;2023-07-31T11:46:40;17.80;99.90
3172;DHT22;1597;51.572;6.992;2023-07-31T11:49:06;17.80;99.90
3172;DHT22;1597;51.572;6.992;2023-07-31T11:51:32;17.80;99.90
3172;DHT22;1597;51.572;6.992;2023-07-31T11:54:02;17.90;99.90
3172;DHT22;1597;51.572;6.992;2023-07-31T11:56:29;17.90;99.90
3172;DHT22;1597;51.572;6.992;2023-07-31T11:59:01;17.90;99.90
3172;DHT22;1597;51.572;6.992;2023-07-31T12:01:31;18.00;99.90
3172;DHT22;1597;51.572;6.992;2023-07-31T12:03:57;18.00;99.90
3172;DHT22;1597;51.572;6.992;2023-07-31T12:06:35;18.00;99.90
3172;DHT22;1597;51.572;6.992;2023-07-31T12:09:07;18.00;99.90
3172;DHT22;1597;51.572;6.992;2023-07-31T12:11:47;17.90;99.90
3172;DHT22;1597;51.572;6.992;2023-07-31T12:14:22;18.00;99.90
3172;DHT22;1597;51.572;6.992;2023-07-31T12:16:58;18.00;99.90
3172;DHT22;1597;51.572;6.992;2023-07-31T12:19:26;18.00;99.90
3172;DHT22;1597;51.572;6.992;2023-07-31T12:21:55;17.60;99.90
3172;DHT22;1597;51.572;6.992;2023-07-31T12:24:21;18.10;99.90
3172;DHT22;1597;51.572;6.992;2023-07-31T12:26:48;18.10;99.90
3172;DHT22;1597;51.572;6.992;2023-07-31T12:29:16;18.10;99.90
3172;DHT22;1597;51.572;6.992;2023-07-31T12:31:42;18.10;99.90
3172;DHT22;1597;51.572;6.992;2023-07-31T12:34:18;18.10;99.90
3172;DHT22;1597;51.572;6.992;2023-07-31T12:36:46;18.10;99.90
3172;DHT22;1597;51.572;6.992;2023-07-31T12:39:14;18.10;99.90
3172;DHT22;1597;51.572;6.992;2023-07-31T12:41:40;18.10;99.90
3172;DHT22;1597;51.572;6.992;2023-07-31T12:44:06;18.10;99.90
3172;DHT22;1597;51.572;6.992;2023-07-31T12:46:35;18.10;99.90
3172;DHT22;1597;51.572;6.992;2023-07-31T12:49:02;18.10;99.90
3172;DHT22;1597;51.572;6.992;2023-07-31T12:51:28;18.20;99.90
3172;DHT22;1597;51.572;6.992;2023-07-31T12:53:54;18.20;99.90
3172;DHT22;1597;51.572;6.992;2023-07-31T12:56:21;18.20;99.90
3172;DHT22;1597;51.572;6.992;2023-07-31T12:58:48;18.20;99.90
3172;DHT22;1597;51.572;6.992;2023-07-31T13:01:14;18.20;99.90
3172;DHT22;1597;51.572;6.992;2023-07-31T13:03:39;18.20;99.90
3172;DHT22;1597;51.572;6.992;2023-07-31T13:06:05;18.30;99.90
3172;DHT22;1597;51.572;6.992;2023-07-31T13:08:31;17.80;99.90
3172;DHT22;1597;51.572;6.992;2023-07-31T13:10:57;18.30;99.90
3172;DHT22;1597;51.572;6.992;2023-07-31T13:13:23;18.30;99.90
3172;DHT22;1597;51.572;6.992;2023-07-31T13:15:49;18.30;99.90
3172;DHT22;1597;51.572;6.992;2023-07-31T13:18:15;18.30;99.90
3172;DHT22;1597;51.572;6.992;2023-07-31T13:20:41;18.30;99.90
3172;DHT22;1597;51.572;6.992;2023-07-31T13:23:07;18.30;99.90
3172;DHT22;1597;51.572;6.992;2023-07-31T13:25:33;18.30;99.90
3172;DHT22;1597;51.572;6.992;2023-07-31T13:27:59;18.40;99.90
3172;DHT22;1597;51.572;6.992;2023-07-31T13:30:28;18.40;99.90
3172;DHT22;1597;51.572;6.992;2023-07-31T13:32:54;18.40;99.90
3172;DHT22;1597;51.572;6.992;2023-07-31T13:35:20;18.40;99.90
3172;DHT22;1597;51.572;6.992;2023-07-31T13:37:48;18.40;99.90
3172;DHT22;1597;51.572;6.992;2023-07-31T13:40:13;18.40;99.90
3172;DHT22;1597;51.572;6.992;2023-07-31T13:42:40;18.50;99.90
3172;DHT22;1597;51.572;6.992;2023-07-31T13:45:07;18.40;99.90
3172;DHT22;1597;51.572;6.992;2023-07-31T13:47:33;18.40;99.90
3172;DHT22;1597;51.572;6.992;2023-07-31T13:49:59;18.40;99.90
3172;DHT22;1597;51.572;6.992;2023-07-31T13:52:25;18.40;99.90
3172;DHT22;1597;51.572;6.992;2023-07-31T13:54:52;18.40;99.90
3172;DHT22;1597;51.572;6.992;2023-07-31T13:57:18;18.40;99.90
3172;DHT22;1597;51.572;6.992;2023-07-31T13:59:45;18.40;99.90
3172;DHT22;1597;51.572;6.992;2023-07-31T14:02:11;18.30;99.90
3172;DHT22;1597;51.572;6.992;2023-07-31T14:04:37;18.40;99.90
3172;DHT22;1597;51.572;6.992;2023-07-31T14:07:03;18.40;99.90
3172;DHT22;1597;51.572;6.992;2023-07-31T14:09:29;18.40;99.90
3172;DHT22;1597;51.572;6.992;2023-07-31T14:11:55;18.40;99.90
3172;DHT22;1597;51.572;6.992;2023-07-31T14:14:21;18.40;99.90
3172;DHT22;1597;51.572;6.992;2023-07-31T14:16:48;18.40;99.90
3172;DHT22;1597;51.572;6.992;2023-07-31T14:19:14;18.50;99.90
3172;DHT22;1597;51.572;6.992;2023-07-31T14:21:40;18.60;99.90
3172;DHT22;1597;51.572;6.992;2023-07-31T14:24:06;18.60;99.90
3172;DHT22;1597;51.572;6.992;2023-07-31T14:26:34;18.70;99.90
3172;DHT22;1597;51.572;6.992;2023-07-31T14:28:59;18.80;99.90
3172;DHT22;1597;51.572;6.992;2023-07-31T14:31:25;19.00;99.90
3172;DHT22;1597;51.572;6.992;2023-07-31T14:33:51;19.00;99.90
3172;DHT22;1597;51.572;6.992;2023-07-31T14:36:17;19.00;99.90
3172;DHT22;1597;51.572;6.992;2023-07-31T14:38:43;19.10;99.90
3172;DHT22;1597;51.572;6.992;2023-07-31T14:41:09;19.10;99.90
3172;DHT22;1597;51.572;6.992;2023-07-31T14:43:35;19.10;99.90
3172;DHT22;1597;51.572;6.992;2023-07-31T14:46:01;19.10;99.90
3172;DHT22;1597;51.572;6.992;2023-07-31T14:48:29;19.10;99.90
3172;DHT22;1597;51.572;6.992;2023-07-31T14:50:55;19.00;99.90
3172;DHT22;1597;51.572;6.992;2023-07-31T14:53:21;19.10;99.90
3172;DHT22;1597;51.572;6.992;2023-07-31T14:55:47;19.00;99.90
3172;DHT22;1597;51.572;6.992;2023-07-31T14:58:13;19.00;99.90
3172;DHT22;1597;51.572;6.992;2023-07-31T15:00:40;19.00;99.90
3172;DHT22;1597;51.572;6.992;2023-07-31T15:03:06;19.00;99.90
3172;DHT22;1597;51.572;6.992;2023-07-31T15:05:32;18.90;99.90
3172;DHT22;1597;51.572;6.992;2023-07-31T15:07:58;18.90;99.90
3172;DHT22;1597;51.572;6.992;2023-07-31T15:10:24;18.90;99.90
3172;DHT22;1597;51.572;6.992;2023-07-31T15:12:53;18.80;99.90
3172;DHT22;1597;51.572;6.992;2023-07-31T15:15:19;18.90;99.90
3172;DHT22;1597;51.572;6.992;2023-07-31T15:17:48;18.80;99.90
3172;DHT22;1597;51.572;6.992;2023-07-31T15:20:14;18.70;99.90
3172;DHT22;1597;51.572;6.992;2023-07-31T15:22:40;18.60;99.90
3172;DHT22;1597;51.572;6.992;2023-07-31T15:25:06;18.50;99.90
3172;DHT22;1597;51.572;6.992;2023-07-31T15:27:32;18.50;99.90
3172;DHT22;1597;51.572;6.992;2023-07-31T15:29:58;18.40;99.90
3172;DHT22;1597;51.572;6.992;2023-07-31T15:32:25;18.40;99.90
3172;DHT22;1597;51.572;6.992;2023-07-31T15:34:52;18.40;99.90
3172;DHT22;1597;51.572;6.992;2023-07-31T15:37:18;18.40;99.90
3172;DHT22;1597;51.572;6.992;2023-07-31T15:39:44;18.40;99.90
3172;DHT22;1597;51.572;6.992;2023-07-31T15:42:11;18.40;99.90
3172;DHT22;1597;51.572;6.992;2023-07-31T15:44:37;18.40;99.90
3172;DHT22;1597;51.572;6.992;2023-07-31T15:47:04;18.30;99.90
3172;DHT22;1597;51.572;6.992;2023-07-31T15:49:30;18.30;99.90
3172;DHT22;1597;51.572;6.992;2023-07-31T15:51:56;18.40;99.90
3172;DHT22;1597;51.572;6.992;2023-07-31T15:54:22;18.30;99.90
3172;DHT22;1597;51.572;6.992;2023-07-31T15:56:49;18.40;99.90
3172;DHT22;1597;51.572;6.992;2023-07-31T15:59:15;18.40;99.90
3172;DHT22;1597;51.572;6.992;2023-07-31T16:01:40;18.40;99.90
3172;DHT22;1597;51.572;6.992;2023-07-31T16:04:06;18.40;99.90
3172;DHT22;1597;51.572;6.992;2023-07-31T16:06:32;18.40;99.90
3172;DHT22;1597;51.572;6.992;2023-07-31T16:08:58;18.50;99.90
3172;DHT22;1597;51.572;6.992;2023-07-31T16:11:27;18.50;99.90
3172;DHT22;1597;51.572;6.992;2023-07-31T16:13:52;18.50;99.90
3172;DHT22;1597;51.572;6.992;2023-07-31T16:16:18;18.50;99.90